createdAt,value
2019-04-20T00:01:46.983Z,52.66
2019-04-20T00:04:25.048Z,52.83
2019-04-20T00:06:54.737Z,52.96
2019-04-20T00:09:31.045Z,53.03
2019-04-20T00:12:10.852Z,53.24
2019-04-20T00:14:38.761Z,53.70
2019-04-20T00:17:09.664Z,54.52
2019-04-20T00:19:47.726Z,54.11
2019-04-20T00:22:24.625Z,53.65
2019-04-20T00:25:20.465Z,54.39
2019-04-20T00:28:24.040Z,54.21
2019-04-20T00:31:04.247Z,54.73
2019-04-20T00:33:28.370Z,55.02
2019-04-20T00:35:46.765Z,56.32
2019-04-20T00:38:21.023Z,56.16
2019-04-20T00:40:58.485Z,56.11
2019-04-20T00:43:32.149Z,56.35
2019-04-20T00:46:09.233Z,55.86
2019-04-20T00:48:46.244Z,56.46
2019-04-20T00:51:39.471Z,56.37
2019-04-20T00:53:48.377Z,56.77
2019-04-20T00:56:18.320Z,57.26
2019-04-20T00:59:03.063Z,58.00
2019-04-20T01:01:46.215Z,57.82
2019-04-20T01:06:53.600Z,58.21
2019-04-20T01:09:24.690Z,58.02
2019-04-20T01:11:56.597Z,60.61
2019-04-20T01:14:37.800Z,67.24
2019-04-20T01:17:11.657Z,59.72
2019-04-20T01:19:37.163Z,59.09
2019-04-20T01:22:13.569Z,59.50
2019-04-20T01:24:46.673Z,59.37
2019-04-20T01:27:36.366Z,60.20
2019-04-20T01:30:03.382Z,59.13
2019-04-20T01:32:35.969Z,59.69
2019-04-20T01:35:11.732Z,59.38
2019-04-20T01:37:54.321Z,59.60
2019-04-20T01:40:11.257Z,60.71
2019-04-20T01:42:42.946Z,61.11
2019-04-20T01:45:25.218Z,60.55
2019-04-20T01:47:54.073Z,60.46
2019-04-20T01:50:27.699Z,60.34
2019-04-20T01:53:09.979Z,60.49
2019-04-20T01:55:46.811Z,61.25
2019-04-20T02:01:09.691Z,60.66
2019-04-20T02:04:03.256Z,60.35
2019-04-20T02:06:39.907Z,60.86
2019-04-20T02:09:15.203Z,60.72
2019-04-20T02:11:49.745Z,60.78
2019-04-20T02:14:29.546Z,60.53
2019-04-20T02:17:04.469Z,61.08
2019-04-20T02:19:41.324Z,60.88
2019-04-20T02:22:13.282Z,60.85
2019-04-20T02:24:36.971Z,61.35
2019-04-20T02:27:10.264Z,61.04
2019-04-20T02:30:07.559Z,61.61
2019-04-20T02:35:44.037Z,61.59
2019-04-20T02:38:39.178Z,62.18
2019-04-20T02:43:46.817Z,62.15
2019-04-20T02:46:10.596Z,61.79
2019-04-20T02:48:54.970Z,61.86
2019-04-20T02:51:22.973Z,62.04
2019-04-20T02:54:06.168Z,61.75
2019-04-20T02:56:36.112Z,61.97
2019-04-20T02:59:31.610Z,61.87
2019-04-20T03:01:38.003Z,62.58
2019-04-20T03:03:54.853Z,63.09
2019-04-20T03:06:38.824Z,62.16
2019-04-20T03:09:22.473Z,62.37
2019-04-20T03:11:58.254Z,62.71
2019-04-20T03:14:21.550Z,62.75
2019-04-20T03:17:03.300Z,62.55
2019-04-20T03:19:29.978Z,62.80
2019-04-20T03:22:09.719Z,62.74
2019-04-20T03:24:48.549Z,63.17
2019-04-20T03:27:21.175Z,63.53
2019-04-20T03:30:22.307Z,63.95
2019-04-20T03:33:09.605Z,64.55
2019-04-20T03:35:22.523Z,64.70
2019-04-20T03:37:52.595Z,64.18
2019-04-20T03:40:22.794Z,64.21
2019-04-20T03:42:43.022Z,65.07
2019-04-20T03:45:19.299Z,63.93
2019-04-20T03:48:01.191Z,66.19
2019-04-20T03:50:46.293Z,67.38
2019-04-20T03:53:24.055Z,65.74
2019-04-20T03:56:03.837Z,67.72
2019-04-20T03:58:46.009Z,65.70
2019-04-20T04:01:58.675Z,65.60
2019-04-20T04:04:14.905Z,65.48
2019-04-20T04:06:37.366Z,66.22
2019-04-20T04:09:14.730Z,64.97
2019-04-20T04:11:51.427Z,66.95
2019-04-20T04:14:09.574Z,65.80
2019-04-20T04:16:47.799Z,65.61
2019-04-20T04:19:22.697Z,64.93
2019-04-20T04:22:04.100Z,64.75
2019-04-20T04:24:35.998Z,64.41
2019-04-20T04:27:09.123Z,65.31
2019-04-20T04:29:51.250Z,63.57
2019-04-20T04:32:50.080Z,63.99
2019-04-20T04:35:00.156Z,63.57
2019-04-20T04:37:33.835Z,63.13
2019-04-20T04:40:14.629Z,63.13
2019-04-20T04:42:42.262Z,62.22
2019-04-20T04:45:01.680Z,62.47
2019-04-20T04:47:28.584Z,63.15
2019-04-20T04:50:09.176Z,61.96
2019-04-20T04:52:44.589Z,67.93
2019-04-20T04:55:17.301Z,68.13
2019-04-20T04:57:41.203Z,60.86
2019-04-20T05:00:17.871Z,60.20
2019-04-20T05:02:53.799Z,60.00
2019-04-20T05:06:01.365Z,59.26
2019-04-20T05:08:25.342Z,59.61
2019-04-20T05:10:49.891Z,59.39
2019-04-20T05:13:25.680Z,59.97
2019-04-20T05:16:14.670Z,59.29
2019-04-20T05:18:59.180Z,59.32
2019-04-20T05:21:39.866Z,58.86
2019-04-20T05:24:41.364Z,58.55
2019-04-20T05:27:34.542Z,58.51
2019-04-20T05:29:49.204Z,58.17
2019-04-20T05:32:32.793Z,58.39
2019-04-20T05:35:15.075Z,57.53
2019-04-20T05:37:54.624Z,56.96
2019-04-20T05:40:29.254Z,56.19
2019-04-20T05:43:13.160Z,55.79
2019-04-20T05:45:39.975Z,55.34
2019-04-20T05:48:11.878Z,54.32
2019-04-20T05:50:52.823Z,56.04
2019-04-20T05:53:27.595Z,52.58
2019-04-20T05:55:57.083Z,51.72
2019-04-20T05:58:34.230Z,50.54
2019-04-20T06:01:08.408Z,49.87
2019-04-20T06:03:37.258Z,49.14
2019-04-20T06:06:17.743Z,48.80
2019-04-20T06:08:54.934Z,47.90
2019-04-20T06:11:25.571Z,47.65
2019-04-20T06:14:05.858Z,47.13
2019-04-20T06:17:08.839Z,46.53
2019-04-20T06:19:39.494Z,50.44
2019-04-20T06:22:57.430Z,45.84
2019-04-20T06:25:39.637Z,45.69
2019-04-20T06:27:52.561Z,46.13
2019-04-20T06:30:19.191Z,45.38
2019-04-20T06:33:52.181Z,45.04
2019-04-20T06:36:23.744Z,44.32
2019-04-20T06:38:56.254Z,44.04
2019-04-20T06:41:26.505Z,43.70
2019-04-20T06:43:57.908Z,43.04
2019-04-20T06:46:29.245Z,42.57
2019-04-20T06:49:04.346Z,42.62
2019-04-20T06:51:34.654Z,42.56
2019-04-20T06:54:36.148Z,41.71
2019-04-20T06:57:14.452Z,41.73
2019-04-20T06:59:42.988Z,40.98
2019-04-20T07:02:23.516Z,40.41
2019-04-20T07:05:05.350Z,39.54
2019-04-20T07:07:27.257Z,39.53
2019-04-20T07:10:09.830Z,38.93
2019-04-20T07:12:27.194Z,38.94
2019-04-20T07:14:55.553Z,38.33
2019-04-20T07:17:54.604Z,38.05
2019-04-20T07:20:30.312Z,38.97
2019-04-20T07:25:37.557Z,37.48
2019-04-20T07:28:12.533Z,37.21
2019-04-20T07:30:45.141Z,37.00
2019-04-20T07:33:21.695Z,36.26
2019-04-20T07:35:50.915Z,36.61
2019-04-20T07:41:02.905Z,35.56
2019-04-20T07:43:32.095Z,35.78
2019-04-20T07:46:10.482Z,35.38
2019-04-20T07:48:39.560Z,34.78
2019-04-20T07:51:04.882Z,33.76
2019-04-20T07:53:45.037Z,33.43
2019-04-20T07:56:30.446Z,32.11
2019-04-20T07:58:47.973Z,33.76
2019-04-20T08:02:00.641Z,33.13
2019-04-20T08:04:36.788Z,32.65
2019-04-20T08:07:01.471Z,32.14
2019-04-20T08:09:39.003Z,32.24
2019-04-20T08:12:34.027Z,31.87
2019-04-20T08:15:11.106Z,31.60
2019-04-20T08:17:37.709Z,31.41
2019-04-20T08:20:06.092Z,30.96
2019-04-20T08:22:42.202Z,30.64
2019-04-20T08:25:08.924Z,29.04
2019-04-20T08:27:48.806Z,30.44
2019-04-20T08:31:14.154Z,30.14
2019-04-20T08:34:04.728Z,29.36
2019-04-20T08:36:47.850Z,30.00
2019-04-20T08:41:37.070Z,29.76
2019-04-20T08:44:39.689Z,28.35
2019-04-20T08:46:49.710Z,29.50
2019-04-20T08:49:26.490Z,29.16
2019-04-20T08:52:05.971Z,27.84
2019-04-20T08:54:28.815Z,28.00
2019-04-20T08:56:47.019Z,28.32
2019-04-20T08:59:15.044Z,27.76
2019-04-20T09:01:46.791Z,27.67
2019-04-20T09:04:33.832Z,24.25
2019-04-20T09:07:06.464Z,27.36
2019-04-20T09:09:49.087Z,26.88
2019-04-20T09:12:21.181Z,27.63
2019-04-20T09:14:40.211Z,25.32
2019-04-20T09:20:00.222Z,25.18
2019-04-20T09:23:13.135Z,24.87
2019-04-20T09:28:28.525Z,26.08
2019-04-20T09:31:11.939Z,25.95
2019-04-20T09:34:04.285Z,25.04
2019-04-20T09:36:40.846Z,25.07
2019-04-20T09:42:07.660Z,24.68
2019-04-20T09:44:42.673Z,23.44
2019-04-20T09:47:14.202Z,23.84
2019-04-20T09:49:58.063Z,24.13
2019-04-20T09:52:31.328Z,23.48
2019-04-20T09:55:09.245Z,23.36
2019-04-20T09:57:43.759Z,23.36
2019-04-20T10:00:21.267Z,23.19
2019-04-20T10:02:39.938Z,21.99
2019-04-20T10:05:13.475Z,21.99
2019-04-20T10:07:48.388Z,21.60
2019-04-20T10:10:31.144Z,22.39
2019-04-20T10:12:54.204Z,21.73
2019-04-20T10:15:28.336Z,21.93
2019-04-20T10:18:07.971Z,21.94
2019-04-20T10:20:41.778Z,21.94
2019-04-20T10:23:14.834Z,21.13
2019-04-20T10:25:46.914Z,18.97
2019-04-20T10:28:25.636Z,20.87
2019-04-20T10:30:59.047Z,21.47
2019-04-20T10:33:31.473Z,21.90
2019-04-20T10:36:05.702Z,21.50
2019-04-20T10:38:38.017Z,21.85
2019-04-20T10:41:16.937Z,22.15
2019-04-20T10:43:44.857Z,21.74
2019-04-20T10:46:18.114Z,21.25
2019-04-20T10:48:53.224Z,21.63
2019-04-20T10:51:24.154Z,21.81
2019-04-20T10:53:56.150Z,22.19
2019-04-20T10:56:29.614Z,20.50
2019-04-20T10:59:01.791Z,21.32
2019-04-20T11:01:38.113Z,20.62
2019-04-20T11:04:16.677Z,18.67
2019-04-20T11:06:48.453Z,21.21
2019-04-20T11:09:21.045Z,21.00
2019-04-20T11:11:54.462Z,20.42
2019-04-20T11:14:32.826Z,20.26
2019-04-20T11:17:02.425Z,19.93
2019-04-20T11:19:34.835Z,19.47
2019-04-20T11:22:08.281Z,19.75
2019-04-20T11:24:40.614Z,19.64
2019-04-20T11:27:12.554Z,19.82
2019-04-20T11:29:46.864Z,19.69
2019-04-20T11:32:20.179Z,17.57
2019-04-20T11:34:53.314Z,20.52
2019-04-20T11:37:25.344Z,19.61
2019-04-20T11:39:57.504Z,19.22
2019-04-20T11:42:29.941Z,18.88
2019-04-20T11:45:02.734Z,18.46
2019-04-20T11:47:35.634Z,18.60
2019-04-20T11:50:09.425Z,17.92
2019-04-20T11:52:45.886Z,18.11
2019-04-20T11:55:16.110Z,18.74
2019-04-20T11:57:49.414Z,18.50
2019-04-20T12:00:27.768Z,18.76
2019-04-20T12:03:27.976Z,19.24
2019-04-20T12:05:57.895Z,19.84
2019-04-20T12:08:29.285Z,19.52
2019-04-20T12:11:18.172Z,19.78
2019-04-20T12:13:36.592Z,20.13
2019-04-20T12:16:09.840Z,19.63
2019-04-20T12:18:42.211Z,19.57
2019-04-20T12:21:14.801Z,19.84
2019-04-20T12:23:46.991Z,19.98
2019-04-20T12:26:20.518Z,20.60
2019-04-20T12:28:53.781Z,20.71
2019-04-20T12:31:27.573Z,20.19
2019-04-20T12:34:00.210Z,20.06
2019-04-20T12:36:33.225Z,19.18
2019-04-20T12:39:09.003Z,19.88
2019-04-20T12:41:53.231Z,20.48
2019-04-20T12:44:23.644Z,20.91
2019-04-20T12:46:55.933Z,21.54
2019-04-20T12:49:29.625Z,21.88
2019-04-20T12:52:05.124Z,21.18
2019-04-20T12:54:36.900Z,20.71
2019-04-20T12:57:09.188Z,21.21
2019-04-20T12:59:44.354Z,20.84
2019-04-20T13:02:15.587Z,20.57
2019-04-20T13:04:49.064Z,20.65
2019-04-20T13:07:22.745Z,20.37
2019-04-20T13:09:56.897Z,20.37
2019-04-20T13:12:46.784Z,20.05
2019-04-20T13:16:00.402Z,20.05
2019-04-20T13:19:01.537Z,20.26
2019-04-20T13:21:34.846Z,20.26
2019-04-20T13:24:07.305Z,20.03
2019-04-20T13:26:40.677Z,20.01
2019-04-20T13:29:12.980Z,19.37
2019-04-20T13:31:45.005Z,20.18
2019-04-20T13:34:17.310Z,20.23
2019-04-20T13:36:50.474Z,20.23
2019-04-20T13:39:22.925Z,20.54
2019-04-20T13:42:03.509Z,20.81
2019-04-20T13:44:28.919Z,21.28
2019-04-20T13:47:01.125Z,21.28
2019-04-20T13:49:36.831Z,21.37
2019-04-20T13:52:09.026Z,21.29
2019-04-20T13:54:42.079Z,21.18
2019-04-20T13:57:17.778Z,21.49
2019-04-20T13:59:53.665Z,21.49
2019-04-20T14:02:58.511Z,21.63
2019-04-20T14:05:33.374Z,21.63
2019-04-20T14:08:09.499Z,22.01
2019-04-20T14:10:41.833Z,21.78
2019-04-20T14:13:16.711Z,21.62
2019-04-20T14:15:45.318Z,20.02
2019-04-20T14:18:17.439Z,20.14
2019-04-20T14:20:50.085Z,21.49
2019-04-20T14:23:23.175Z,21.53
2019-04-20T14:25:56.646Z,21.18
2019-04-20T14:28:29.182Z,21.18
2019-04-20T14:31:01.652Z,21.22
2019-04-20T14:33:34.863Z,21.82
2019-04-20T14:36:08.769Z,21.97
2019-04-20T14:38:43.754Z,21.97
2019-04-20T14:41:16.109Z,21.26
2019-04-20T14:43:48.969Z,21.59
2019-04-20T14:46:21.055Z,21.58
2019-04-20T14:48:54.511Z,21.28
2019-04-20T14:51:27.856Z,21.27
2019-04-20T14:54:01.365Z,21.35
2019-04-20T14:56:33.668Z,21.51
2019-04-20T14:59:25.326Z,20.92
2019-04-20T15:02:10.501Z,21.92
2019-04-20T15:04:45.224Z,22.00
2019-04-20T15:07:18.364Z,22.00
2019-04-20T15:09:51.170Z,21.20
2019-04-20T15:12:35.968Z,20.84
2019-04-20T15:14:58.762Z,21.37
2019-04-20T15:17:43.723Z,21.35
2019-04-20T15:20:37.926Z,21.35
2019-04-20T15:23:17.925Z,22.00
2019-04-20T15:25:50.634Z,22.00
2019-04-20T15:28:24.068Z,21.83
2019-04-20T15:30:56.405Z,22.04
2019-04-20T15:33:28.432Z,22.13
2019-04-20T15:36:00.065Z,22.44
2019-04-20T15:38:33.231Z,21.46
2019-04-20T15:41:08.615Z,22.23
2019-04-20T15:43:39.458Z,22.25
2019-04-20T15:46:13.043Z,22.08
2019-04-20T15:48:46.190Z,21.91
2019-04-20T15:51:19.488Z,22.02
2019-04-20T15:53:51.757Z,22.41
2019-04-20T15:56:22.806Z,21.98
2019-04-20T15:58:54.656Z,21.51
2019-04-20T16:01:30.333Z,22.02
2019-04-20T16:04:11.723Z,22.80
2019-04-20T16:06:43.265Z,23.12
2019-04-20T16:09:15.765Z,22.90
2019-04-20T16:11:48.839Z,22.83
2019-04-20T16:14:21.613Z,23.14
2019-04-20T16:16:53.735Z,22.95
2019-04-20T16:19:35.005Z,22.87
2019-04-20T16:21:57.567Z,21.85
2019-04-20T16:24:34.652Z,21.84
2019-04-20T16:27:17.819Z,23.69
2019-04-20T16:29:51.542Z,23.59
2019-04-20T16:32:24.699Z,23.70
2019-04-20T16:34:58.185Z,23.79
2019-04-20T16:37:30.639Z,24.03
2019-04-20T16:40:04.101Z,24.24
2019-04-20T16:42:39.266Z,23.59
2019-04-20T16:45:11.613Z,24.76
2019-04-20T16:47:46.343Z,24.84
2019-04-20T16:50:19.341Z,24.83
2019-04-20T16:52:52.696Z,25.01
2019-04-20T16:55:25.505Z,25.19
2019-04-20T16:57:57.648Z,25.29
2019-04-20T17:00:29.426Z,25.28
2019-04-20T17:03:02.591Z,24.78
2019-04-20T17:05:38.999Z,25.53
2019-04-20T17:08:11.275Z,25.62
2019-04-20T17:10:48.841Z,25.77
2019-04-20T17:13:34.151Z,25.97
2019-04-20T17:16:01.665Z,26.18
2019-04-20T17:18:37.566Z,26.37
2019-04-20T17:21:16.705Z,26.53
2019-04-20T17:23:51.211Z,26.70
2019-04-20T17:26:32.765Z,26.80
2019-04-20T17:29:22.151Z,26.91
2019-04-20T17:32:23.233Z,27.15
2019-04-20T17:35:10.556Z,27.26
2019-04-20T17:37:34.709Z,27.42
2019-04-20T17:40:27.166Z,27.69
2019-04-20T17:42:51.018Z,28.05
2019-04-20T17:45:28.809Z,28.33
2019-04-20T17:48:08.810Z,28.98
2019-04-20T17:50:55.991Z,29.16
2019-04-20T17:53:28.103Z,29.25
2019-04-20T17:55:53.024Z,29.45
2019-04-20T17:58:29.754Z,29.75
2019-04-20T18:01:29.454Z,29.84
2019-04-20T18:04:19.750Z,30.01
2019-04-20T18:06:46.694Z,30.31
2019-04-20T18:09:11.547Z,30.58
2019-04-20T18:11:44.892Z,30.46
2019-04-20T18:14:28.559Z,30.63
2019-04-20T18:17:10.148Z,30.64
2019-04-20T18:19:34.707Z,30.84
2019-04-20T18:22:09.964Z,31.05
2019-04-20T18:25:09.005Z,31.11
2019-04-20T18:27:41.555Z,31.34
2019-04-20T18:30:10.745Z,31.50
2019-04-20T18:32:38.899Z,31.84
2019-04-20T18:35:16.615Z,31.92
2019-04-20T18:37:52.573Z,32.02
2019-04-20T18:40:32.566Z,32.00
2019-04-20T18:43:04.922Z,32.22
2019-04-20T18:45:56.970Z,32.33
2019-04-20T18:48:30.509Z,32.44
2019-04-20T18:50:43.750Z,32.56
2019-04-20T18:53:20.109Z,32.79
2019-04-20T18:55:55.124Z,33.22
2019-04-20T18:58:22.835Z,33.25
2019-04-20T19:00:55.509Z,33.55
2019-04-20T19:03:34.814Z,33.67
2019-04-20T19:06:05.631Z,33.77
2019-04-20T19:08:40.501Z,33.87
2019-04-20T19:11:16.752Z,33.95
2019-04-20T19:14:12.946Z,34.10
2019-04-20T19:16:55.401Z,34.36
2019-04-20T19:19:36.697Z,36.24
2019-04-20T19:22:00.108Z,34.13
2019-04-20T19:24:36.056Z,34.12
2019-04-20T19:27:10.615Z,34.12
2019-04-20T19:29:51.776Z,34.42
2019-04-20T19:32:30.366Z,34.34
2019-04-20T19:34:59.270Z,34.30
2019-04-20T19:37:28.681Z,34.45
2019-04-20T19:40:09.613Z,34.60
2019-04-20T19:42:44.684Z,34.64
2019-04-20T19:45:32.296Z,34.78
2019-04-20T19:47:59.300Z,34.85
2019-04-20T19:50:41.399Z,35.07
2019-04-20T19:53:11.229Z,35.39
2019-04-20T19:55:38.634Z,35.82
2019-04-20T19:58:10.089Z,36.00
2019-04-20T20:00:52.155Z,36.07
2019-04-20T20:03:23.862Z,36.39
2019-04-20T20:05:57.886Z,36.42
2019-04-20T20:08:34.538Z,36.46
2019-04-20T20:11:05.066Z,36.79
2019-04-20T20:13:42.007Z,36.75
2019-04-20T20:16:18.590Z,36.76
2019-04-20T20:18:55.784Z,36.92
2019-04-20T20:21:27.244Z,37.07
2019-04-20T20:23:54.203Z,36.96
2019-04-20T20:26:34.478Z,37.37
2019-04-20T20:29:12.120Z,37.58
2019-04-20T20:31:54.019Z,37.63
2019-04-20T20:34:16.723Z,37.94
2019-04-20T20:36:54.586Z,38.17
2019-04-20T20:39:26.115Z,38.11
2019-04-20T20:42:06.386Z,38.27
2019-04-20T20:44:41.254Z,38.63
2019-04-20T20:47:32.267Z,39.02
2019-04-20T20:50:08.823Z,38.29
2019-04-20T20:52:32.333Z,38.44
2019-04-20T20:55:00.148Z,38.20
2019-04-20T20:57:37.064Z,37.99
2019-04-20T21:00:07.689Z,37.96
2019-04-20T21:02:44.808Z,38.09
2019-04-20T21:05:09.286Z,39.26
2019-04-20T21:07:42.758Z,38.08
2019-04-20T21:10:25.947Z,38.38
2019-04-20T21:12:55.398Z,38.45
2019-04-20T21:15:25.070Z,38.14
2019-04-20T21:18:20.591Z,41.01
2019-04-20T21:20:49.010Z,38.41
2019-04-20T21:23:17.554Z,38.42
2019-04-20T21:25:59.089Z,38.45
2019-04-20T21:28:35.802Z,38.69
2019-04-20T21:31:12.316Z,38.93
2019-04-20T21:33:40.690Z,39.50
2019-04-20T21:36:19.139Z,40.39
2019-04-20T21:38:48.669Z,40.76
2019-04-20T21:41:25.599Z,41.40
2019-04-20T21:44:05.518Z,41.88
2019-04-20T21:46:40.844Z,42.57
2019-04-20T21:49:23.739Z,43.16
2019-04-20T21:51:50.320Z,43.05
2019-04-20T21:54:18.113Z,42.91
2019-04-20T21:56:56.239Z,42.49
2019-04-20T21:59:34.036Z,42.15
2019-04-20T22:02:06.561Z,41.97
2019-04-20T22:04:33.355Z,41.69
2019-04-20T22:07:06.327Z,41.58
2019-04-20T22:09:41.313Z,41.51
2019-04-20T22:12:12.265Z,41.14
2019-04-20T22:14:43.893Z,41.15
2019-04-20T22:17:21.132Z,45.11
2019-04-20T22:20:04.085Z,41.45
2019-04-20T22:22:42.585Z,40.63
2019-04-20T22:25:12.179Z,40.45
2019-04-20T22:27:34.764Z,40.57
2019-04-20T22:30:06.115Z,40.46
2019-04-20T22:32:44.186Z,40.85
2019-04-20T22:35:15.508Z,40.63
2019-04-20T22:37:59.763Z,40.55
2019-04-20T22:40:33.055Z,40.73
2019-04-20T22:43:04.184Z,40.86
2019-04-20T22:45:42.665Z,41.43
2019-04-20T22:48:12.836Z,41.03
2019-04-20T22:51:01.614Z,41.23
2019-04-20T22:53:31.103Z,41.14
2019-04-20T22:56:12.298Z,41.18
2019-04-20T22:58:40.713Z,41.34
2019-04-20T23:01:04.270Z,41.55
2019-04-20T23:03:34.693Z,41.60
2019-04-20T23:06:06.955Z,41.71
2019-04-20T23:08:40.260Z,41.92
2019-04-20T23:11:17.935Z,42.22
2019-04-20T23:13:48.345Z,42.28
2019-04-20T23:16:20.956Z,42.47
2019-04-20T23:18:54.097Z,42.57
2019-04-20T23:21:26.036Z,42.62
2019-04-20T23:24:00.423Z,42.80
2019-04-20T23:26:36.771Z,43.43
2019-04-20T23:29:07.050Z,43.01
2019-04-20T23:31:46.027Z,42.91
2019-04-20T23:34:20.153Z,43.24
2019-04-20T23:36:50.220Z,43.20
2019-04-20T23:39:23.331Z,43.41
2019-04-20T23:42:00.415Z,43.48
2019-04-20T23:44:48.248Z,43.48
2019-04-20T23:47:26.125Z,43.50
2019-04-20T23:50:16.379Z,43.53
2019-04-20T23:52:53.348Z,43.48
2019-04-20T23:55:12.014Z,43.75
2019-04-20T23:57:45.968Z,43.97
